createdAt,value
2022-10-09T00:01:05.110Z,0.82
2022-10-09T00:03:35.929Z,0.73
2022-10-09T00:06:04.862Z,0.80
2022-10-09T00:08:32.779Z,0.80
2022-10-09T00:11:00.738Z,0.80
2022-10-09T00:13:28.624Z,1.08
2022-10-09T00:15:56.426Z,0.60
2022-10-09T00:18:24.650Z,1.00
2022-10-09T00:20:53.854Z,0.80
2022-10-09T00:23:21.715Z,0.85
2022-10-09T00:25:54.807Z,0.90
2022-10-09T00:28:24.018Z,0.80
2022-10-09T00:30:52.345Z,0.80
2022-10-09T00:33:20.872Z,0.70
2022-10-09T00:35:48.806Z,0.70
2022-10-09T00:38:18.339Z,0.57
2022-10-09T00:40:46.362Z,0.60
2022-10-09T00:43:21.359Z,0.60
2022-10-09T00:45:52.674Z,0.50
2022-10-09T00:48:21.245Z,1.15
2022-10-09T00:50:53.981Z,0.65
2022-10-09T00:53:27.117Z,0.70
2022-10-09T00:55:55.574Z,0.50
2022-10-09T00:58:25.831Z,0.85
2022-10-09T01:00:54.324Z,0.80
2022-10-09T01:03:22.337Z,1.10
2022-10-09T01:05:59.648Z,0.60
2022-10-09T01:08:33.012Z,1.00
2022-10-09T01:11:08.962Z,0.75
2022-10-09T01:13:44.201Z,0.70
2022-10-09T01:16:23.703Z,0.82
2022-10-09T01:18:59.264Z,0.60
2022-10-09T01:21:31.376Z,0.65
2022-10-09T01:24:22.141Z,0.70
2022-10-09T01:27:07.225Z,0.80
2022-10-09T01:29:38.801Z,0.85
2022-10-09T01:32:08.860Z,0.60
2022-10-09T01:34:40.307Z,0.50
2022-10-09T01:37:09.518Z,0.57
2022-10-09T01:39:38.748Z,0.63
2022-10-09T01:42:09.450Z,0.60
2022-10-09T01:44:37.357Z,0.57
2022-10-09T01:47:07.245Z,0.68
2022-10-09T01:49:43.250Z,0.65
2022-10-09T01:52:26.112Z,0.60
2022-10-09T01:55:04.662Z,0.50
2022-10-09T01:57:39.736Z,0.68
2022-10-09T02:00:11.073Z,0.40
2022-10-09T02:02:40.996Z,0.55
2022-10-09T02:05:10.826Z,0.50
2022-10-09T02:07:39.501Z,0.88
2022-10-09T02:10:10.529Z,0.70
2022-10-09T02:12:45.116Z,0.40
2022-10-09T02:15:13.589Z,0.50
2022-10-09T02:17:47.768Z,0.40
2022-10-09T02:20:24.917Z,0.32
2022-10-09T02:22:54.627Z,0.50
2022-10-09T02:25:22.910Z,0.50
2022-10-09T02:27:52.137Z,0.40
2022-10-09T02:30:22.884Z,0.50
2022-10-09T02:32:53.544Z,0.47
2022-10-09T02:35:22.259Z,0.50
2022-10-09T02:37:50.290Z,0.52
2022-10-09T02:40:18.327Z,0.60
2022-10-09T02:42:46.379Z,0.40
2022-10-09T02:45:16.144Z,0.70
2022-10-09T02:47:44.047Z,0.70
2022-10-09T02:50:11.970Z,0.97
2022-10-09T02:52:39.885Z,0.40
2022-10-09T02:55:08.258Z,0.57
2022-10-09T02:57:36.109Z,0.40
2022-10-09T03:00:04.588Z,0.47
2022-10-09T03:02:34.005Z,0.50
2022-10-09T03:05:01.920Z,0.40
2022-10-09T03:07:30.029Z,0.40
2022-10-09T03:09:58.497Z,0.70
2022-10-09T03:12:26.309Z,0.50
2022-10-09T03:14:54.234Z,0.40
2022-10-09T03:17:22.493Z,0.70
2022-10-09T03:19:51.756Z,0.50
2022-10-09T03:22:19.853Z,0.50
2022-10-09T03:24:47.937Z,0.60
2022-10-09T03:27:15.795Z,0.60
2022-10-09T03:29:43.768Z,0.60
2022-10-09T03:32:11.835Z,0.50
2022-10-09T03:34:39.848Z,0.90
2022-10-09T03:37:09.273Z,0.63
2022-10-09T03:39:37.322Z,0.50
2022-10-09T03:42:05.445Z,0.50
2022-10-09T03:44:33.403Z,0.70
2022-10-09T03:47:01.482Z,0.60
2022-10-09T03:49:29.416Z,0.53
2022-10-09T03:51:57.396Z,0.80
2022-10-09T03:54:26.804Z,0.60
2022-10-09T03:56:54.645Z,0.50
2022-10-09T03:59:22.657Z,0.60
2022-10-09T04:01:50.608Z,0.60
2022-10-09T04:04:18.647Z,0.90
2022-10-09T04:06:46.673Z,0.50
2022-10-09T04:09:14.624Z,0.80
2022-10-09T04:11:43.850Z,0.50
2022-10-09T04:14:11.933Z,0.50
2022-10-09T04:16:40.111Z,0.60
2022-10-09T04:19:08.003Z,0.80
2022-10-09T04:21:36.069Z,0.77
2022-10-09T04:24:04.034Z,0.70
2022-10-09T04:26:31.937Z,0.60
2022-10-09T04:29:01.231Z,0.70
2022-10-09T04:31:29.230Z,0.60
2022-10-09T04:33:57.349Z,0.70
2022-10-09T04:36:25.781Z,0.80
2022-10-09T04:38:53.788Z,0.50
2022-10-09T04:41:21.682Z,0.60
2022-10-09T04:43:49.682Z,0.70
2022-10-09T04:46:18.971Z,0.73
2022-10-09T04:48:47.663Z,0.70
2022-10-09T04:51:16.608Z,0.50
2022-10-09T04:53:45.444Z,0.70
2022-10-09T04:56:15.343Z,0.67
2022-10-09T04:58:44.534Z,0.60
2022-10-09T05:01:15.005Z,0.90
2022-10-09T05:03:44.837Z,0.60
2022-10-09T05:06:14.406Z,0.70
2022-10-09T05:08:43.197Z,0.77
2022-10-09T05:11:13.318Z,0.73
2022-10-09T05:13:45.072Z,0.70
2022-10-09T05:16:15.368Z,0.73
2022-10-09T05:18:45.877Z,0.40
2022-10-09T05:21:14.030Z,0.70
2022-10-09T05:23:41.897Z,0.60
2022-10-09T05:26:13.468Z,0.50
2022-10-09T05:28:41.418Z,0.60
2022-10-09T05:31:10.467Z,0.60
2022-10-09T05:33:38.516Z,0.60
2022-10-09T05:36:08.206Z,0.43
2022-10-09T05:38:36.093Z,0.50
2022-10-09T05:41:06.167Z,0.60
2022-10-09T05:43:35.995Z,0.67
2022-10-09T05:46:09.335Z,0.97
2022-10-09T05:48:37.685Z,0.67
2022-10-09T05:51:13.439Z,0.77
2022-10-09T05:53:42.917Z,0.87
2022-10-09T05:56:13.276Z,0.60
2022-10-09T05:58:41.213Z,0.70
2022-10-09T06:01:10.085Z,0.67
2022-10-09T06:03:38.807Z,0.80
2022-10-09T06:06:08.361Z,0.70
2022-10-09T06:08:38.973Z,0.93
2022-10-09T06:11:11.601Z,0.80
2022-10-09T06:13:39.601Z,0.60
2022-10-09T06:16:07.559Z,0.60
2022-10-09T06:18:35.726Z,0.70
2022-10-09T06:21:03.940Z,0.47
2022-10-09T06:23:32.676Z,0.73
2022-10-09T06:26:04.644Z,0.57
2022-10-09T06:28:34.106Z,0.80
2022-10-09T06:31:03.874Z,0.82
2022-10-09T06:33:33.365Z,0.90
2022-10-09T06:36:09.675Z,1.10
2022-10-09T06:38:38.664Z,0.50
2022-10-09T06:41:09.718Z,0.80
2022-10-09T06:43:37.726Z,0.47
2022-10-09T06:46:08.448Z,0.70
2022-10-09T06:48:37.772Z,0.60
2022-10-09T06:51:07.621Z,0.77
2022-10-09T06:53:36.153Z,0.60
2022-10-09T06:56:04.366Z,0.80
2022-10-09T06:58:33.619Z,0.60
2022-10-09T07:01:07.087Z,0.68
2022-10-09T07:03:35.655Z,0.52
2022-10-09T07:06:08.105Z,0.77
2022-10-09T07:08:35.968Z,0.80
2022-10-09T07:11:09.906Z,0.65
2022-10-09T07:13:39.537Z,0.55
2022-10-09T07:16:07.766Z,0.70
2022-10-09T07:18:36.729Z,0.70
2022-10-09T07:21:06.256Z,0.50
2022-10-09T07:23:35.612Z,0.60
2022-10-09T07:26:10.953Z,0.70
2022-10-09T07:28:41.491Z,0.60
2022-10-09T07:31:10.199Z,0.77
2022-10-09T07:33:38.609Z,0.40
2022-10-09T07:36:08.124Z,0.50
2022-10-09T07:38:36.350Z,0.50
2022-10-09T07:41:07.354Z,0.50
2022-10-09T07:43:36.106Z,0.57
2022-10-09T07:46:07.047Z,0.50
2022-10-09T07:48:35.657Z,0.45
2022-10-09T07:51:09.922Z,0.30
2022-10-09T07:53:38.653Z,0.50
2022-10-09T07:56:07.164Z,0.40
2022-10-09T07:58:35.228Z,0.50
2022-10-09T08:01:08.854Z,0.40
2022-10-09T08:03:37.886Z,0.50
2022-10-09T08:06:06.724Z,0.30
2022-10-09T08:08:35.030Z,0.30
2022-10-09T08:11:10.129Z,0.30
2022-10-09T08:13:38.227Z,0.40
2022-10-09T08:16:08.217Z,0.20
2022-10-09T08:18:37.307Z,0.60
2022-10-09T08:21:07.506Z,0.50
2022-10-09T08:23:35.564Z,0.47
2022-10-09T08:26:03.714Z,0.50
2022-10-09T08:28:31.897Z,0.70
2022-10-09T08:30:59.955Z,0.40
2022-10-09T08:33:29.163Z,0.35
2022-10-09T08:36:08.065Z,0.40
2022-10-09T08:38:51.919Z,0.40
2022-10-09T08:41:29.223Z,0.40
2022-10-09T08:44:02.857Z,0.40
2022-10-09T08:46:36.501Z,0.20
2022-10-09T08:49:06.490Z,0.35
2022-10-09T08:51:39.601Z,0.40
2022-10-09T08:54:17.280Z,0.40
2022-10-09T08:56:45.932Z,0.50
2022-10-09T08:59:13.846Z,0.40
2022-10-09T09:01:49.507Z,0.35
2022-10-09T09:04:33.235Z,0.50
2022-10-09T09:07:12.417Z,0.30
2022-10-09T09:09:48.776Z,0.30
2022-10-09T09:12:23.425Z,0.30
2022-10-09T09:15:10.188Z,0.40
2022-10-09T09:17:47.554Z,0.30
2022-10-09T09:20:25.831Z,0.30
2022-10-09T09:22:53.942Z,0.30
2022-10-09T09:25:25.322Z,0.30
2022-10-09T09:27:55.818Z,0.43
2022-10-09T09:30:28.276Z,0.20
2022-10-09T09:33:06.179Z,0.40
2022-10-09T09:35:43.109Z,0.30
2022-10-09T09:38:11.135Z,0.40
2022-10-09T09:40:42.235Z,0.57
2022-10-09T09:43:18.860Z,0.30
2022-10-09T09:45:47.730Z,0.22
2022-10-09T09:48:20.118Z,0.40
2022-10-09T09:51:10.081Z,0.13
2022-10-09T09:53:44.900Z,0.32
2022-10-09T09:56:12.980Z,0.25
2022-10-09T09:58:46.757Z,0.30
2022-10-09T10:01:24.093Z,0.20
2022-10-09T10:03:54.175Z,0.17
2022-10-09T10:06:25.688Z,0.22
2022-10-09T10:09:04.164Z,0.40
2022-10-09T10:11:34.982Z,0.35
2022-10-09T10:14:08.053Z,0.65
2022-10-09T10:16:39.289Z,0.40
2022-10-09T10:19:07.325Z,0.50
2022-10-09T10:21:48.328Z,0.30
2022-10-09T10:24:22.236Z,0.30
2022-10-09T10:26:55.801Z,0.35
2022-10-09T10:29:30.288Z,0.55
2022-10-09T10:32:05.120Z,0.40
2022-10-09T10:34:38.817Z,0.52
2022-10-09T10:37:25.421Z,0.70
2022-10-09T10:40:00.501Z,0.40
2022-10-09T10:42:38.379Z,0.40
2022-10-09T10:45:15.607Z,0.40
2022-10-09T10:47:50.341Z,0.32
2022-10-09T10:50:20.487Z,0.40
2022-10-09T10:53:03.189Z,0.38
2022-10-09T10:55:44.262Z,0.40
2022-10-09T10:58:30.680Z,0.40
2022-10-09T11:01:20.337Z,0.40
2022-10-09T11:04:13.012Z,0.38
2022-10-09T11:06:52.399Z,0.20
2022-10-09T11:09:30.799Z,0.32
2022-10-09T11:12:10.047Z,0.20
2022-10-09T11:14:50.548Z,0.22
2022-10-09T11:17:26.666Z,0.20
2022-10-09T11:20:12.613Z,0.32
2022-10-09T11:22:53.733Z,0.30
2022-10-09T11:25:31.054Z,0.22
2022-10-09T11:28:06.080Z,0.30
2022-10-09T11:30:41.294Z,0.50
2022-10-09T11:33:22.561Z,0.55
2022-10-09T11:35:57.242Z,0.40
2022-10-09T11:38:29.765Z,0.38
2022-10-09T11:41:05.218Z,0.20
2022-10-09T11:43:48.518Z,0.30
2022-10-09T11:46:26.234Z,0.30
2022-10-09T11:49:02.930Z,0.30
2022-10-09T11:51:37.342Z,0.30
2022-10-09T11:54:07.365Z,0.20
2022-10-09T11:56:36.655Z,0.30
2022-10-09T11:59:07.078Z,0.43
2022-10-09T12:01:37.852Z,0.40
2022-10-09T12:04:09.878Z,0.40
2022-10-09T12:06:47.608Z,0.50
2022-10-09T12:09:24.163Z,0.32
2022-10-09T12:12:00.413Z,0.30
2022-10-09T12:14:30.354Z,0.20
2022-10-09T12:16:59.108Z,0.38
2022-10-09T12:19:30.425Z,0.30
2022-10-09T12:22:03.608Z,0.20
2022-10-09T12:24:37.975Z,0.43
2022-10-09T12:27:09.116Z,0.38
2022-10-09T12:29:49.305Z,0.32
2022-10-09T12:32:24.660Z,0.40
2022-10-09T12:34:53.775Z,0.25
2022-10-09T12:37:23.576Z,0.45
2022-10-09T12:39:51.660Z,0.30
2022-10-09T12:42:24.262Z,0.20
2022-10-09T12:44:55.487Z,0.25
2022-10-09T12:47:26.871Z,0.20
2022-10-09T12:49:59.922Z,0.30
2022-10-09T12:52:28.101Z,0.40
2022-10-09T12:54:56.016Z,0.20
2022-10-09T12:57:27.834Z,0.73
2022-10-09T12:59:56.786Z,0.43
2022-10-09T13:02:24.868Z,0.40
2022-10-09T13:04:58.791Z,0.50
2022-10-09T13:07:29.865Z,0.50
2022-10-09T13:10:07.932Z,0.38
2022-10-09T13:12:37.346Z,0.30
2022-10-09T13:15:09.158Z,0.30
2022-10-09T13:17:39.414Z,0.30
2022-10-09T13:20:27.389Z,0.40
2022-10-09T13:22:56.420Z,0.40
2022-10-09T13:25:24.909Z,0.38
2022-10-09T13:27:54.500Z,0.30
2022-10-09T13:30:22.479Z,0.30
2022-10-09T13:32:50.886Z,0.32
2022-10-09T13:35:19.328Z,0.47
2022-10-09T13:37:47.702Z,0.30
2022-10-09T13:40:19.819Z,0.50
2022-10-09T13:42:53.846Z,0.50
2022-10-09T13:45:23.362Z,0.65
2022-10-09T13:47:51.875Z,0.55
2022-10-09T13:50:20.498Z,0.38
2022-10-09T13:52:48.690Z,0.60
2022-10-09T13:55:17.185Z,0.40
2022-10-09T13:57:45.152Z,0.40
2022-10-09T14:00:14.243Z,0.25
2022-10-09T14:02:43.532Z,0.50
2022-10-09T14:05:11.756Z,0.30
2022-10-09T14:07:39.781Z,0.25
2022-10-09T14:10:08.281Z,0.32
2022-10-09T14:12:36.327Z,0.40
2022-10-09T14:15:04.367Z,0.38
2022-10-09T14:17:32.221Z,0.75
2022-10-09T14:20:02.000Z,0.30
2022-10-09T14:22:30.110Z,0.30
2022-10-09T14:24:58.049Z,0.40
2022-10-09T14:27:26.254Z,0.30
2022-10-09T14:29:56.738Z,0.38
2022-10-09T14:32:25.729Z,0.47
2022-10-09T14:34:53.979Z,0.40
2022-10-09T14:37:40.374Z,0.25
2022-10-09T14:40:10.099Z,0.30
2022-10-09T14:42:38.704Z,0.30
2022-10-09T14:45:07.874Z,0.60
2022-10-09T14:47:35.844Z,0.40
2022-10-09T14:50:04.140Z,0.40
2022-10-09T14:52:33.325Z,0.30
2022-10-09T14:55:01.256Z,0.38
2022-10-09T14:57:32.970Z,0.40
2022-10-09T15:00:03.232Z,0.30
2022-10-09T15:02:31.264Z,0.70
2022-10-09T15:04:59.128Z,0.70
2022-10-09T15:07:28.295Z,0.35
2022-10-09T15:09:58.114Z,0.32
2022-10-09T15:12:26.007Z,0.40
2022-10-09T15:14:54.017Z,0.22
2022-10-09T15:17:22.088Z,0.40
2022-10-09T15:19:49.904Z,0.30
2022-10-09T15:22:17.774Z,0.20
2022-10-09T15:24:45.929Z,0.30
2022-10-09T15:27:15.221Z,0.50
2022-10-09T15:29:43.278Z,0.40
2022-10-09T15:32:11.294Z,0.60
2022-10-09T15:34:41.243Z,0.68
2022-10-09T15:37:09.349Z,0.30
2022-10-09T15:39:37.403Z,0.52
2022-10-09T15:42:05.617Z,0.50
2022-10-09T15:44:34.956Z,0.30
2022-10-09T15:47:03.048Z,0.60
2022-10-09T15:49:30.939Z,0.77
2022-10-09T15:51:58.914Z,0.80
2022-10-09T15:54:27.900Z,0.60
2022-10-09T15:56:55.747Z,0.98
2022-10-09T15:59:24.126Z,0.60
2022-10-09T16:01:53.510Z,0.60
2022-10-09T16:04:21.438Z,0.80
2022-10-09T16:06:49.457Z,0.82
2022-10-09T16:09:17.381Z,0.70
2022-10-09T16:11:45.269Z,0.73
2022-10-09T16:14:13.276Z,0.50
2022-10-09T16:16:41.443Z,0.70
2022-10-09T16:19:10.668Z,0.60
2022-10-09T16:21:38.663Z,0.30
2022-10-09T16:24:06.944Z,0.40
2022-10-09T16:26:34.742Z,0.60
2022-10-09T16:29:02.639Z,0.63
2022-10-09T16:31:34.788Z,0.50
2022-10-09T16:34:04.185Z,0.65
2022-10-09T16:36:34.176Z,0.60
2022-10-09T16:39:02.092Z,0.70
2022-10-09T16:41:30.173Z,0.70
2022-10-09T16:44:00.274Z,0.60
2022-10-09T16:46:31.692Z,0.40
2022-10-09T16:49:00.935Z,0.47
2022-10-09T16:51:30.422Z,0.50
2022-10-09T16:54:02.372Z,0.80
2022-10-09T16:56:33.389Z,0.60
2022-10-09T16:59:03.560Z,0.68
2022-10-09T17:01:32.268Z,0.60
2022-10-09T17:04:01.319Z,0.70
2022-10-09T17:06:29.499Z,0.52
2022-10-09T17:09:00.022Z,0.43
2022-10-09T17:11:29.805Z,0.73
2022-10-09T17:13:58.171Z,0.60
2022-10-09T17:16:28.206Z,0.40
2022-10-09T17:18:56.666Z,0.47
2022-10-09T17:21:27.854Z,0.60
2022-10-09T17:24:02.418Z,0.60
2022-10-09T17:26:31.168Z,0.40
2022-10-09T17:28:59.970Z,0.43
2022-10-09T17:31:29.516Z,0.70
2022-10-09T17:33:59.810Z,0.55
2022-10-09T17:36:29.466Z,0.60
2022-10-09T17:38:57.800Z,0.68
2022-10-09T17:41:28.439Z,0.90
2022-10-09T17:43:57.447Z,0.90
2022-10-09T17:46:27.844Z,0.80
2022-10-09T17:48:57.146Z,1.13
2022-10-09T17:51:26.992Z,0.95
2022-10-09T17:56:33.044Z,0.70
2022-10-09T17:59:01.865Z,0.80
2022-10-09T18:01:30.199Z,0.60
2022-10-09T18:03:58.802Z,0.50
2022-10-09T18:06:27.197Z,0.90
2022-10-09T18:08:57.258Z,0.73
2022-10-09T18:11:27.032Z,0.70
2022-10-09T18:13:56.468Z,0.60
2022-10-09T18:16:35.385Z,0.70
2022-10-09T18:19:05.916Z,0.88
2022-10-09T18:21:34.350Z,0.80
2022-10-09T18:24:02.393Z,0.60
2022-10-09T18:26:30.564Z,0.70
2022-10-09T18:29:01.509Z,0.70
2022-10-09T18:31:30.169Z,0.70
2022-10-09T18:33:59.013Z,1.10
2022-10-09T18:36:33.518Z,0.82
2022-10-09T18:39:03.284Z,0.70
2022-10-09T18:41:31.410Z,0.70
2022-10-09T18:44:02.014Z,0.77
2022-10-09T18:46:35.303Z,0.60
2022-10-09T18:49:03.471Z,0.70
2022-10-09T18:51:32.322Z,0.70
2022-10-09T18:54:04.571Z,1.00
2022-10-09T18:56:35.828Z,0.90
2022-10-09T18:59:10.520Z,0.95
2022-10-09T19:01:38.644Z,0.80
2022-10-09T19:04:06.628Z,0.70
2022-10-09T19:06:34.596Z,0.80
2022-10-09T19:09:02.581Z,0.90
2022-10-09T19:11:31.524Z,0.80
2022-10-09T19:14:00.932Z,0.60
2022-10-09T19:16:31.878Z,0.70
2022-10-09T19:19:00.186Z,0.80
2022-10-09T19:21:28.133Z,0.75
2022-10-09T19:23:56.312Z,0.50
2022-10-09T19:26:24.543Z,0.82
2022-10-09T19:28:52.494Z,0.82
2022-10-09T19:31:20.457Z,0.68
2022-10-09T19:33:49.658Z,0.80
2022-10-09T19:36:17.760Z,0.70
2022-10-09T19:38:46.727Z,0.50
2022-10-09T19:41:16.563Z,0.70
2022-10-09T19:43:44.809Z,1.23
2022-10-09T19:46:17.065Z,0.70
2022-10-09T19:48:45.976Z,1.15
2022-10-09T19:51:18.672Z,0.55
2022-10-09T19:53:47.031Z,0.70
2022-10-09T19:56:16.953Z,0.80
2022-10-09T19:58:46.343Z,0.82
2022-10-09T20:01:15.288Z,0.63
2022-10-09T20:03:43.651Z,0.80
2022-10-09T20:06:12.509Z,0.45
2022-10-09T20:08:43.286Z,0.60
2022-10-09T20:11:12.011Z,0.60
2022-10-09T20:13:41.518Z,0.60
2022-10-09T20:16:11.362Z,0.57
2022-10-09T20:18:42.255Z,0.90
2022-10-09T20:21:10.858Z,0.70
2022-10-09T20:23:38.829Z,0.85
2022-10-09T20:26:11.912Z,0.85
2022-10-09T20:28:40.108Z,0.63
2022-10-09T20:31:09.698Z,0.75
2022-10-09T20:33:39.812Z,1.08
2022-10-09T20:36:09.217Z,0.70
2022-10-09T20:38:37.426Z,0.57
2022-10-09T20:41:07.514Z,0.90
2022-10-09T20:43:36.999Z,1.00
2022-10-09T20:46:08.523Z,1.20
2022-10-09T20:48:36.990Z,1.00
2022-10-09T20:51:05.275Z,0.50
2022-10-09T20:53:33.248Z,0.80
2022-10-09T20:56:01.850Z,1.13
2022-10-09T20:58:30.553Z,0.85
2022-10-09T21:01:00.205Z,0.85
2022-10-09T21:03:28.053Z,0.98
2022-10-09T21:05:56.033Z,0.90
2022-10-09T21:08:23.973Z,0.77
2022-10-09T21:10:51.844Z,1.05
2022-10-09T21:13:19.757Z,0.70
2022-10-09T21:15:50.045Z,1.02
2022-10-09T21:18:20.873Z,0.80
2022-10-09T21:20:49.894Z,0.80
2022-10-09T21:23:20.052Z,0.90
2022-10-09T21:25:50.020Z,1.00
2022-10-09T21:28:18.514Z,0.88
2022-10-09T21:30:46.472Z,0.65
2022-10-09T21:33:15.134Z,0.68
2022-10-09T21:35:46.365Z,1.00
2022-10-09T21:38:16.024Z,1.15
2022-10-09T21:40:44.317Z,0.68
2022-10-09T21:43:12.312Z,0.70
2022-10-09T21:45:41.095Z,0.77
2022-10-09T21:48:09.939Z,0.60
2022-10-09T21:50:37.955Z,0.80
2022-10-09T21:53:07.342Z,0.57
2022-10-09T21:55:35.783Z,0.65
2022-10-09T21:58:03.610Z,0.82
2022-10-09T22:00:31.560Z,1.08
2022-10-09T22:03:00.107Z,0.90
2022-10-09T22:05:27.989Z,1.20
2022-10-09T22:07:55.894Z,0.80
2022-10-09T22:10:25.489Z,0.95
2022-10-09T22:12:53.647Z,0.95
2022-10-09T22:15:21.805Z,0.80
2022-10-09T22:17:49.732Z,0.80
2022-10-09T22:20:17.920Z,0.90
2022-10-09T22:22:46.021Z,0.80
2022-10-09T22:25:13.937Z,1.27
2022-10-09T22:27:43.184Z,1.13
2022-10-09T22:30:12.374Z,0.85
2022-10-09T22:32:40.264Z,1.00
2022-10-09T22:35:08.633Z,0.98
2022-10-09T22:37:36.586Z,0.90
2022-10-09T22:40:05.078Z,1.20
2022-10-09T22:42:32.918Z,0.85
2022-10-09T22:45:02.552Z,0.80
2022-10-09T22:47:30.515Z,0.80
2022-10-09T22:49:58.542Z,0.90
2022-10-09T22:52:27.270Z,0.82
2022-10-09T22:54:55.833Z,0.75
2022-10-09T22:57:23.675Z,0.85
2022-10-09T22:59:51.688Z,0.70
2022-10-09T23:02:20.943Z,1.00
2022-10-09T23:04:48.807Z,0.90
2022-10-09T23:07:16.789Z,0.75
2022-10-09T23:09:44.677Z,1.08
2022-10-09T23:12:12.493Z,0.77
2022-10-09T23:14:40.435Z,0.70
2022-10-09T23:17:08.378Z,0.60
2022-10-09T23:19:37.687Z,0.95
2022-10-09T23:22:05.866Z,0.80
2022-10-09T23:24:33.774Z,0.85
2022-10-09T23:27:01.585Z,1.00
2022-10-09T23:29:29.624Z,1.05
2022-10-09T23:31:57.664Z,1.23
2022-10-09T23:34:25.518Z,0.80
2022-10-09T23:36:54.842Z,0.70
2022-10-09T23:39:22.739Z,1.17
2022-10-09T23:41:50.557Z,1.05
2022-10-09T23:44:21.971Z,1.02
2022-10-09T23:46:50.250Z,0.70
2022-10-09T23:49:18.104Z,1.05
2022-10-09T23:51:46.112Z,0.93
2022-10-09T23:54:15.520Z,0.90
2022-10-09T23:56:44.069Z,1.75
2022-10-09T23:59:12.932Z,1.10
